Time;durP1;ratioP1;P1;durP2;ratioP2;P2;SDS_P1;SDS_P2;PMS_P1;PMS_P2;Temp;Humidity;BMP_temperature;BMP_pressure;BME280_temperature;BME280_humidity;BME280_pressure;Samples;Min_cycle;Max_cycle;Signal;HPM_P1;HPM_P2
2023/01/23 00:01:57;;;;;;;101.28;32.83;;;;;;;3.01;100.00;102303.31;8285624;28;20076;-53
2023/01/23 00:06:00;;;;;;;83.80;33.05;;;;;;;2.99;100.00;102299.81;8269145;28;20046;-52
2023/01/23 00:10:00;;;;;;;97.38;33.45;;;;;;;2.98;100.00;102302.53;8259786;28;20049;-53
2023/01/23 00:14:01;;;;;;;98.13;33.15;;;;;;;2.98;100.00;102308.75;8283344;28;20033;-55
2023/01/23 00:18:02;;;;;;;78.90;31.20;;;;;;;2.96;100.00;102305.25;8297294;28;20042;-54
2023/01/23 00:22:02;;;;;;;77.57;30.67;;;;;;;2.99;100.00;102310.47;8292225;28;20042;-53
2023/01/23 00:26:05;;;;;;;83.28;32.00;;;;;;;2.99;100.00;102299.81;8292486;28;20041;-53
2023/01/23 00:30:06;;;;;;;81.97;30.35;;;;;;;3.02;100.00;102310.38;8292831;28;20033;-53
2023/01/23 00:34:11;;;;;;;77.38;29.75;;;;;;;3.00;100.00;102306.91;8293171;28;20076;-55
2023/01/23 00:38:12;;;;;;;79.80;28.67;;;;;;;3.00;100.00;102298.91;8290753;28;20041;-54
2023/01/23 00:42:12;;;;;;;82.90;29.77;;;;;;;2.99;100.00;102305.13;8287437;28;20105;-53
2023/01/23 00:46:13;;;;;;;68.53;27.50;;;;;;;3.00;100.00;102306.03;8272871;28;20061;-53
2023/01/23 00:50:14;;;;;;;69.57;29.45;;;;;;;3.00;100.00;102296.22;8290788;28;20124;-53
2023/01/23 00:54:16;;;;;;;65.53;25.98;;;;;;;3.03;100.00;102305.94;8291170;28;20073;-52
2023/01/23 00:58:17;;;;;;;69.50;28.27;;;;;;;3.02;100.00;102312.22;8297504;28;20301;-53
2023/01/23 01:02:17;;;;;;;61.95;26.30;;;;;;;3.03;100.00;102316.63;8297992;28;20050;-53
2023/01/23 01:06:18;;;;;;;64.32;26.05;;;;;;;3.05;100.00;102315.63;8296902;28;20553;-53
2023/01/23 01:10:19;;;;;;;59.83;26.42;;;;;;;3.07;100.00;102318.25;8297337;28;20693;-52
2023/01/23 01:14:19;;;;;;;54.45;24.38;;;;;;;3.07;100.00;102316.47;8296947;28;20468;-52
2023/01/23 01:18:21;;;;;;;57.90;24.08;;;;;;;3.09;100.00;102317.31;8296395;28;20129;-53
2023/01/23 01:22:22;;;;;;;58.15;23.98;;;;;;;3.08;100.00;102320.88;8297209;28;20070;-53
2023/01/23 01:26:23;;;;;;;52.20;22.92;;;;;;;3.09;100.00;102330.66;8297253;28;20041;-51
2023/01/23 01:30:25;;;;;;;59.50;24.83;;;;;;;3.05;100.00;102320.97;8296870;28;20057;-53
2023/01/23 01:34:26;;;;;;;55.58;23.95;;;;;;;3.06;100.00;102322.75;8296773;28;20109;-51
2023/01/23 01:38:27;;;;;;;58.50;24.00;;;;;;;3.02;100.00;102326.41;8295863;28;20030;-53
2023/01/23 01:42:28;;;;;;;52.85;22.70;;;;;;;3.00;100.00;102328.28;8288839;28;20054;-54
2023/01/23 01:46:29;;;;;;;52.13;23.42;;;;;;;3.01;100.00;102332.69;8270112;28;20129;-52
2023/01/23 01:50:30;;;;;;;53.25;23.58;;;;;;;3.02;100.00;102331.75;8264536;28;20038;-53
2023/01/23 01:54:40;;;;;;;51.22;23.17;;;;;;;3.03;100.00;102333.53;8272276;28;20060;-53
2023/01/23 01:58:42;;;;;;;49.15;22.98;;;;;;;3.03;100.00;102328.19;8296421;28;20442;-51
2023/01/23 02:02:49;;;;;;;52.60;23.30;;;;;;;3.06;100.00;102338.78;8296310;28;20046;-53
2023/01/23 02:06:52;;;;;;;52.13;24.17;;;;;;;3.07;100.00;102336.97;8295735;28;20049;-52
2023/01/23 02:10:53;;;;;;;53.30;23.35;;;;;;;3.10;100.00;102348.44;8295416;28;20045;-52
2023/01/23 02:14:53;;;;;;;45.92;20.67;;;;;;;3.07;100.00;102347.66;8294678;28;20483;-53
2023/01/23 02:18:59;;;;;;;53.70;22.42;;;;;;;3.10;100.00;102356.44;8295401;28;20037;-54
2023/01/23 02:27:21;;;;;;;56.92;22.55;;;;;;;3.14;100.00;102347.41;8300368;28;20816;-51
2023/01/23 02:31:22;;;;;;;54.97;23.00;;;;;;;3.17;100.00;102347.31;8279399;28;20045;-54
2023/01/23 02:35:27;;;;;;;48.30;21.35;;;;;;;3.19;100.00;102348.16;8266356;28;20046;-54
2023/01/23 02:39:32;;;;;;;45.35;20.05;;;;;;;3.21;100.00;102354.31;8256749;28;20059;-51
2023/01/23 02:43:36;;;;;;;47.15;21.30;;;;;;;3.14;100.00;102352.75;8295047;28;20042;-54
2023/01/23 02:47:39;;;;;;;50.88;22.02;;;;;;;3.14;100.00;102352.75;8321265;28;20045;-53
2023/01/23 02:51:39;;;;;;;52.28;22.10;;;;;;;3.12;100.00;102349.28;8321160;28;20040;-52
2023/01/23 02:55:42;;;;;;;47.47;20.02;;;;;;;3.15;100.00;102353.63;8301441;28;20053;-53
2023/01/23 03:00:14;;;;;;;53.08;23.50;;;;;;;3.14;100.00;102352.75;8288612;28;20052;-52
2023/01/23 03:04:07;;;;;;;48.70;22.30;;;;;;;3.15;100.00;102349.19;8291905;28;20508;-52
2023/01/23 03:08:07;;;;;;;53.03;22.05;;;;;;;3.13;100.00;102345.66;8288153;28;20686;-58
2023/01/23 03:12:08;;;;;;;47.10;20.23;;;;;;;3.16;100.00;102334.88;8296052;28;20120;-57
2023/01/23 03:16:08;;;;;;;41.78;19.90;;;;;;;3.17;100.00;102341.09;8318698;28;20180;-56
2023/01/23 03:20:10;;;;;;;43.17;19.90;;;;;;;3.17;100.00;102341.97;8319209;28;20057;-57
2023/01/23 03:24:12;;;;;;;52.13;20.77;;;;;;;3.17;100.00;102336.63;8280274;28;20084;-59
2023/01/23 03:32:35;;;;;;;49.70;22.20;;;;;;;3.06;100.00;102327.22;8286477;28;20074;-55
2023/01/23 03:36:36;;;;;;;45.63;20.27;;;;;;;2.98;100.00;102324.78;8275786;28;20089;-53
2023/01/23 03:41:40;;;;;;;44.35;19.33;;;;;;;2.95;100.00;102330.22;8265469;28;20054;-55
2023/01/23 03:44:57;;;;;;;44.90;19.50;;;;;;;3.04;100.00;102342.41;8296590;28;20041;-56
2023/01/23 03:49:02;;;;;;;45.73;20.57;;;;;;;3.07;100.00;102353.88;8296637;28;20057;-55
2023/01/23 03:53:02;;;;;;;46.50;20.85;;;;;;;3.08;100.00;102342.25;8297005;28;20038;-56
2023/01/23 03:57:03;;;;;;;47.78;20.63;;;;;;;3.09;100.00;102354.72;8267624;28;20031;-56
2023/01/23 04:01:24;;;;;;;48.17;21.15;;;;;;;3.12;100.00;102369.75;8262604;28;20038;-57
2023/01/23 04:05:25;;;;;;;49.22;20.80;;;;;;;3.14;100.00;102363.44;8264115;28;20057;-57
2023/01/23 04:09:26;;;;;;;49.47;21.92;;;;;;;3.13;100.00;102364.38;8264528;28;20042;-56
2023/01/23 04:13:30;;;;;;;51.67;21.13;;;;;;;3.12;100.00;102359.97;8255576;28;20401;-57
2023/01/23 04:17:31;;;;;;;46.58;20.80;;;;;;;3.11;100.00;102370.69;8230117;28;20041;-50
2023/01/23 04:21:32;;;;;;;50.75;21.02;;;;;;;3.11;100.00;102374.22;8229734;28;20034;-49
2023/01/23 04:25:33;;;;;;;49.25;23.05;;;;;;;3.05;100.00;102366.41;8246685;28;20177;-50
2023/01/23 04:29:33;;;;;;;51.50;22.52;;;;;;;3.04;100.00;102375.34;8257762;28;20150;-48
2023/01/23 04:33:35;;;;;;;52.67;21.80;;;;;;;3.06;100.00;102365.50;8263781;28;20415;-50
2023/01/23 04:37:37;;;;;;;50.13;22.63;;;;;;;3.13;100.00;102367.03;8263377;28;20118;-50
2023/01/23 04:41:37;;;;;;;50.85;21.75;;;;;;;3.12;100.00;102359.97;8268218;28;20046;-50
2023/01/23 04:45:50;;;;;;;48.45;21.77;;;;;;;3.13;100.00;102352.78;8295200;28;20630;-50
2023/01/23 04:50:11;;;;;;;50.00;21.05;;;;;;;3.12;100.00;102351.94;8294471;28;20042;-51
2023/01/23 04:54:16;;;;;;;52.73;23.33;;;;;;;3.08;100.00;102346.75;8290095;28;20039;-50
2023/01/23 04:58:18;;;;;;;53.30;21.85;;;;;;;3.10;100.00;102348.44;8262684;28;20309;-50
2023/01/23 05:02:19;;;;;;;46.40;20.05;;;;;;;3.09;100.00;102354.72;8257158;28;20066;-52
2023/01/23 05:06:19;;;;;;;46.90;20.85;;;;;;;3.08;100.00;102358.28;8254191;28;20034;-50
2023/01/23 05:10:20;;;;;;;49.33;22.20;;;;;;;3.08;100.00;102357.44;8246782;28;20038;-51
2023/01/23 05:14:24;;;;;;;46.63;21.40;;;;;;;3.11;100.00;102363.53;8252334;28;20061;-52
2023/01/23 05:18:24;;;;;;;48.28;20.45;;;;;;;3.12;100.00;102359.97;8242918;28;20085;-51
2023/01/23 05:22:27;;;;;;;52.15;22.45;;;;;;;3.13;100.00;102366.16;8256231;28;20042;-53
2023/01/23 05:26:28;;;;;;;51.88;22.55;;;;;;;3.12;100.00;102353.72;8257284;28;20488;-51
2023/01/23 05:30:29;;;;;;;46.67;20.40;;;;;;;3.12;100.00;102365.31;8238545;28;20053;-49
2023/01/23 05:34:47;;;;;;;45.97;19.42;;;;;;;3.15;100.00;102364.31;8250920;28;20073;-51
2023/01/23 05:38:56;;;;;;;47.55;22.27;;;;;;;3.13;100.00;102377.72;8256017;28;20041;-49
2023/01/23 05:43:00;;;;;;;45.65;20.83;;;;;;;3.11;100.00;102371.53;8245285;28;20042;-53
2023/01/23 05:47:20;;;;;;;44.92;20.05;;;;;;;3.08;100.00;102377.00;8223571;28;20046;-51
2023/01/23 05:51:30;;;;;;;47.80;21.98;;;;;;;3.05;100.00;102379.75;8255999;28;20050;-51
2023/01/23 05:55:30;;;;;;;40.78;19.05;;;;;;;3.05;100.00;102384.25;8273279;28;20038;-49
2023/01/23 05:59:31;;;;;;;45.15;20.67;;;;;;;3.07;100.00;102382.38;8268534;28;20037;-53
2023/01/23 06:03:44;;;;;;;45.08;21.25;;;;;;;3.07;100.00;102387.72;8279546;28;20045;-54
2023/01/23 06:08:03;;;;;;;43.35;20.00;;;;;;;3.10;100.00;102401.88;8256565;28;20458;-51
2023/01/23 06:12:04;;;;;;;47.95;20.42;;;;;;;3.10;100.00;102409.00;8285816;28;20038;-50
2023/01/23 06:16:06;;;;;;;43.65;19.77;;;;;;;3.11;100.00;102395.59;8271127;28;20058;-54
2023/01/23 06:20:07;;;;;;;44.45;18.83;;;;;;;3.10;100.00;102401.88;8256289;28;20039;-50
2023/01/23 06:24:08;;;;;;;42.53;20.02;;;;;;;3.06;100.00;102402.91;8281557;28;20054;-52
2023/01/23 06:28:08;;;;;;;47.85;20.48;;;;;;;3.09;100.00;102402.81;8287040;28;20149;-52
2023/01/23 06:32:10;;;;;;;40.53;19.80;;;;;;;3.08;100.00;102411.72;8285888;28;20041;-54
2023/01/23 06:36:11;;;;;;;41.42;20.23;;;;;;;3.09;100.00;102412.59;8279545;28;20049;-52
2023/01/23 06:40:12;;;;;;;41.45;20.25;;;;;;;3.05;100.00;102422.50;8288549;28;20218;-53
2023/01/23 06:44:15;;;;;;;40.75;18.90;;;;;;;3.05;100.00;102419.81;8286611;28;20038;-50
2023/01/23 06:48:16;;;;;;;40.28;19.40;;;;;;;3.03;100.00;102434.16;8275584;28;20651;-51
2023/01/23 06:52:16;;;;;;;42.78;18.75;;;;;;;3.03;100.00;102435.06;8287570;28;20045;-53
2023/01/23 06:56:20;;;;;;;37.33;18.13;;;;;;;3.06;100.00;102444.75;8267291;28;20042;-50
2023/01/23 07:00:22;;;;;;;37.60;18.65;;;;;;;3.04;100.00;102457.28;8283504;28;20117;-53
2023/01/23 07:04:25;;;;;;;35.92;17.25;;;;;;;3.09;100.00;102460.69;8284069;28;20042;-55
2023/01/23 07:08:27;;;;;;;38.88;18.52;;;;;;;3.09;100.00;102464.25;8285002;28;20496;-54
2023/01/23 07:12:28;;;;;;;39.92;19.67;;;;;;;3.09;100.00;102466.03;8272747;28;20041;-56
2023/01/23 07:16:28;;;;;;;34.92;17.70;;;;;;;3.12;100.00;102476.66;8286486;28;20165;-56
2023/01/23 07:20:29;;;;;;;43.70;18.05;;;;;;;3.14;100.00;102489.03;8296585;28;20037;-52
2023/01/23 07:24:32;;;;;;;38.90;18.40;;;;;;;3.15;100.00;102481.91;8294866;28;20042;-52
2023/01/23 07:28:32;;;;;;;37.65;19.10;;;;;;;3.14;100.00;102497.03;8296748;28;20083;-52
2023/01/23 07:32:32;;;;;;;36.53;18.23;;;;;;;3.17;100.00;102501.44;8293248;28;20491;-52
2023/01/23 07:36:33;;;;;;;34.58;17.08;;;;;;;3.15;100.00;102496.16;8292287;28;20037;-52
2023/01/23 07:40:33;;;;;;;36.42;16.88;;;;;;;3.17;100.00;102504.97;8296488;28;20046;-52
2023/01/23 07:44:34;;;;;;;34.45;16.77;;;;;;;3.15;100.00;102501.50;8294486;28;20061;-51
2023/01/23 07:48:36;;;;;;;38.80;18.05;;;;;;;3.15;100.00;102498.81;8293787;28;20596;-51
2023/01/23 07:52:37;;;;;;;41.72;18.40;;;;;;;3.17;100.00;102496.94;8295907;28;20038;-48
2023/01/23 07:56:38;;;;;;;32.90;16.98;;;;;;;3.12;100.00;102498.03;8295272;28;20645;-51
2023/01/23 08:00:40;;;;;;;38.20;18.48;;;;;;;3.15;100.00;102498.81;8292369;28;20576;-52
2023/01/23 08:04:41;;;;;;;34.55;17.08;;;;;;;3.16;100.00;102505.91;8293620;28;20048;-49
2023/01/23 08:08:41;;;;;;;42.22;19.02;;;;;;;3.15;100.00;102509.50;8295448;28;20042;-50
2023/01/23 08:12:41;;;;;;;41.92;18.58;;;;;;;3.15;100.00;102514.84;8295712;28;20064;-52
2023/01/23 08:16:42;;;;;;;34.90;18.10;;;;;;;3.17;100.00;102518.34;8295461;28;20392;-48
2023/01/23 08:20:42;;;;;;;39.75;19.08;;;;;;;3.15;100.00;102514.84;8293104;28;20048;-53
2023/01/23 08:24:43;;;;;;;39.72;19.05;;;;;;;3.17;100.00;102521.00;8294790;28;20045;-58
2023/01/23 08:28:45;;;;;;;40.60;19.02;;;;;;;3.20;100.00;102520.91;8295247;28;20092;-58
2023/01/23 08:32:45;;;;;;;34.05;17.45;;;;;;;3.21;100.00;102520.00;8294972;28;20037;-58
2023/01/23 08:36:46;;;;;;;38.47;18.80;;;;;;;3.24;100.00;102509.25;8294580;28;20053;-58
2023/01/23 08:40:48;;;;;;;34.97;18.17;;;;;;;3.26;100.00;102518.06;8293428;28;20562;-58
2023/01/23 08:44:48;;;;;;;37.30;17.23;;;;;;;3.31;100.00;102516.13;8294134;28;20049;-57
2023/01/23 08:48:49;;;;;;;35.67;17.05;;;;;;;3.35;100.00;102514.22;8283241;28;20543;-53
2023/01/23 08:52:49;;;;;;;41.88;17.40;;;;;;;3.34;100.00;102510.69;8293389;28;20096;-52
2023/01/23 08:56:50;;;;;;;33.28;16.38;;;;;;;3.39;100.00;102511.41;8283975;28;20038;-52
2023/01/23 09:00:50;;;;;;;32.80;16.15;;;;;;;3.45;100.00;102513.06;8290191;28;20598;-52
2023/01/23 09:04:51;;;;;;;32.45;16.38;;;;;;;3.52;100.00;102514.59;8268717;28;20088;-51
2023/01/23 09:08:51;;;;;;;37.88;16.98;;;;;;;3.56;99.75;102526.94;8290295;28;20049;-52
2023/01/23 09:12:53;;;;;;;33.42;17.02;;;;;;;3.58;99.65;102531.34;8293334;28;20543;-51
2023/01/23 09:16:54;;;;;;;36.17;16.85;;;;;;;3.63;99.61;102534.72;8293268;28;20062;-52
2023/01/23 09:20:55;;;;;;;36.05;18.27;;;;;;;3.66;99.76;102534.66;8292771;28;20053;-52
2023/01/23 09:24:55;;;;;;;32.78;16.48;;;;;;;3.70;99.72;102536.31;8292056;28;20467;-53
2023/01/23 09:28:56;;;;;;;37.88;17.45;;;;;;;3.69;99.45;102534.53;8292163;28;20739;-53
2023/01/23 09:32:56;;;;;;;34.20;17.25;;;;;;;3.68;99.59;102532.81;8290423;28;20116;-50
2023/01/23 09:36:56;;;;;;;42.75;18.98;;;;;;;3.69;99.66;102539.91;8290976;28;20070;-52
2023/01/23 09:40:58;;;;;;;36.92;19.15;;;;;;;3.68;99.97;102548.84;8278561;28;20041;-51
2023/01/23 09:45:04;;;;;;;36.67;17.83;;;;;;;3.73;99.96;102552.25;8286084;28;20046;-50
2023/01/23 09:49:30;;;;;;;38.08;18.85;;;;;;;3.68;100.00;102554.19;8289947;28;20037;-51
2023/01/23 09:53:36;;;;;;;39.45;17.52;;;;;;;3.74;100.00;102556.69;8277984;28;20116;-52
2023/01/23 09:57:54;;;;;;;38.22;18.95;;;;;;;3.73;100.00;102551.38;8288167;28;20456;-52
2023/01/23 10:01:55;;;;;;;39.15;18.48;;;;;;;3.76;100.00;102552.16;8288466;28;20125;-51
2023/01/23 10:06:19;;;;;;;38.72;18.02;;;;;;;3.82;100.00;102562.66;8290969;28;20048;-52
2023/01/23 10:10:50;;;;;;;38.13;18.17;;;;;;;3.87;100.00;102558.06;8282462;28;20527;-51
2023/01/23 10:15:21;;;;;;;37.67;17.90;;;;;;;3.92;100.00;102553.44;8287022;28;20147;-51
2023/01/23 10:19:51;;;;;;;38.42;18.77;;;;;;;4.02;100.00;102554.00;8289234;28;20156;-52
2023/01/23 10:24:31;;;;;;;46.33;20.27;;;;;;;4.04;99.53;102558.41;8258620;28;20089;-52
2023/01/23 10:28:36;;;;;;;39.22;18.13;;;;;;;4.05;99.44;102560.13;8243223;28;20034;-50
2023/01/23 10:32:49;;;;;;;41.40;19.65;;;;;;;4.06;99.31;102561.03;8259466;28;20070;-49
2023/01/23 10:37:18;;;;;;;37.70;18.50;;;;;;;4.11;98.96;102569.75;8277872;28;20061;-52
2023/01/23 10:41:20;;;;;;;44.30;20.58;;;;;;;4.14;98.93;102566.13;8298693;28;20042;-50
2023/01/23 10:45:21;;;;;;;42.90;19.98;;;;;;;4.18;98.82;102575.81;8323414;28;20522;-51
2023/01/23 10:49:34;;;;;;;42.25;20.10;;;;;;;4.19;98.68;102564.16;8327403;28;20546;-49
2023/01/23 10:53:34;;;;;;;45.58;19.65;;;;;;;4.20;98.32;102557.91;8329844;28;20048;-48
2023/01/23 10:57:45;;;;;;;44.85;19.77;;;;;;;4.26;98.08;102555.88;8329409;28;20048;-49
2023/01/23 11:01:58;;;;;;;38.92;19.30;;;;;;;4.29;98.43;102554.88;8327622;28;20124;-51
2023/01/23 11:10:20;;;;;;;43.17;20.42;;;;;;;4.28;97.98;102553.16;8319203;27;20390;-50
2023/01/23 11:14:23;;;;;;;43.70;19.80;;;;;;;4.32;97.38;102547.66;8299455;28;20042;-50
2023/01/23 11:18:41;;;;;;;40.10;19.33;;;;;;;4.38;97.39;102546.56;8303695;28;20056;-50
2023/01/23 11:22:42;;;;;;;38.25;18.83;;;;;;;4.40;97.35;102545.59;8305393;28;20112;-49
2023/01/23 11:26:43;;;;;;;37.97;18.05;;;;;;;4.44;97.24;102535.63;8311859;28;20044;-51
2023/01/23 11:30:46;;;;;;;41.45;19.08;;;;;;;4.46;97.55;102533.78;8303629;28;20390;-52
2023/01/23 11:34:52;;;;;;;43.30;20.02;;;;;;;4.48;98.92;102531.94;8289062;28;20049;-53
2023/01/23 11:38:59;;;;;;;44.47;18.77;;;;;;;4.48;98.72;102530.13;8295439;28;20059;-54
2023/01/23 11:42:59;;;;;;;37.85;19.52;;;;;;;4.51;97.25;102526.47;8309682;28;20038;-52
2023/01/23 11:47:26;;;;;;;36.22;17.00;;;;;;;4.54;96.60;102513.00;8299270;28;20046;-52
2023/01/23 11:51:36;;;;;;;28.88;14.63;;;;;;;4.60;93.21;102512.78;8310827;28;20045;-51
2023/01/23 11:56:08;;;;;;;25.80;12.73;;;;;;;4.67;91.33;102516.97;8311720;28;20128;-53
2023/01/23 12:00:23;;;;;;;27.10;13.85;;;;;;;4.72;90.56;102509.63;8299128;28;20507;-51
2023/01/23 12:05:04;;;;;;;27.52;14.18;;;;;;;4.75;90.80;102506.84;8293910;28;20465;-53
2023/01/23 12:09:20;;;;;;;25.35;14.07;;;;;;;4.77;90.58;102502.31;8308134;28;20053;-52
2023/01/23 12:14:02;;;;;;;26.55;13.80;;;;;;;4.85;90.40;102506.44;8305719;28;20084;-52
2023/01/23 12:18:22;;;;;;;26.35;13.95;;;;;;;4.85;89.59;102495.72;8308417;28;20127;-51
2023/01/23 12:23:02;;;;;;;29.27;14.05;;;;;;;4.87;88.99;102509.06;8283841;28;20111;-53
2023/01/23 12:27:18;;;;;;;24.50;12.18;;;;;;;4.88;88.54;102513.53;8284456;28;20511;-54
2023/01/23 12:31:49;;;;;;;27.25;12.77;;;;;;;4.89;88.52;102520.63;8286148;28;20103;-54
2023/01/23 12:36:29;;;;;;;23.27;13.00;;;;;;;4.95;87.87;102515.03;8281178;28;20472;-50
2023/01/23 12:40:36;;;;;;;23.98;12.57;;;;;;;4.97;88.83;102511.38;8289167;28;20205;-52
2023/01/23 12:44:47;;;;;;;24.33;12.20;;;;;;;5.01;88.10;102509.47;8284291;28;20093;-51
2023/01/23 12:48:57;;;;;;;21.15;11.07;;;;;;;5.01;87.92;102512.13;8282266;28;20046;-51
2023/01/23 12:53:06;;;;;;;20.40;10.70;;;;;;;5.02;85.89;102516.56;8281969;28;20039;-52
2023/01/23 12:57:09;;;;;;;17.73;10.55;;;;;;;5.03;84.28;102513.81;8280681;28;20343;-53
2023/01/23 13:01:22;;;;;;;19.70;9.98;;;;;;;5.10;83.99;102511.81;8284669;28;20041;-53
2023/01/23 13:05:33;;;;;;;20.63;10.83;;;;;;;5.09;85.43;102504.69;8288869;28;20029;-51
2023/01/23 13:09:45;;;;;;;21.27;11.32;;;;;;;5.01;84.47;102518.38;8282383;28;20286;-50
2023/01/23 13:13:46;;;;;;;17.52;10.52;;;;;;;4.97;84.48;102523.91;8291992;28;20064;-51
2023/01/23 13:17:49;;;;;;;21.27;11.10;;;;;;;4.92;85.28;102524.09;8285496;28;20045;-50
2023/01/23 13:22:28;;;;;;;20.80;11.35;;;;;;;4.93;85.05;102525.81;8279288;28;20034;-52
2023/01/23 13:26:29;;;;;;;20.60;11.27;;;;;;;4.95;85.70;102533.81;8271989;28;20045;-53
2023/01/23 13:34:42;;;;;;;19.02;10.32;;;;;;;4.97;85.31;102531.97;8390134;27;20951;-51
2023/01/23 13:38:42;;;;;;;21.20;11.00;;;;;;;5.00;84.98;102537.22;8353085;28;20396;-53
2023/01/23 13:42:43;;;;;;;19.38;10.85;;;;;;;4.99;85.00;102539.00;8363060;28;20072;-54
2023/01/23 13:51:22;;;;;;;21.23;10.90;;;;;;;5.02;85.03;102529.97;8308461;28;20407;-50
2023/01/23 13:56:45;;;;;;;19.50;10.90;;;;;;;5.05;84.97;102530.75;8290785;28;20045;-51
2023/01/23 13:59:57;;;;;;;17.83;10.48;;;;;;;5.11;84.44;102529.63;8285579;28;20116;-50
2023/01/23 14:05:12;;;;;;;20.70;10.75;;;;;;;5.12;83.87;102537.59;8288658;28;20049;-49
2023/01/23 14:08:25;;;;;;;15.50;8.63;;;;;;;5.08;84.37;102529.75;8297721;28;20042;-49
2023/01/23 14:12:29;;;;;;;16.45;9.20;;;;;;;5.09;84.06;102526.16;8299507;28;20045;-52
2023/01/23 14:16:29;;;;;;;16.27;9.60;;;;;;;5.04;84.01;102538.84;8310314;28;20457;-50
2023/01/23 14:20:38;;;;;;;17.55;9.75;;;;;;;5.07;84.04;102538.72;8306096;28;20045;-51
2023/01/23 14:24:49;;;;;;;18.13;10.25;;;;;;;5.01;83.58;102530.91;8303136;28;20049;-51
2023/01/23 14:28:51;;;;;;;18.52;10.20;;;;;;;5.03;84.25;102542.47;8303618;28;20095;-52
2023/01/23 14:32:51;;;;;;;14.60;8.75;;;;;;;5.03;83.96;102542.47;8298077;28;20034;-51
2023/01/23 14:37:00;;;;;;;16.90;9.20;;;;;;;5.03;83.45;102543.31;8287863;28;20344;-51
2023/01/23 14:41:04;;;;;;;15.60;9.32;;;;;;;5.07;82.71;102539.59;8293316;28;20145;-51
2023/01/23 14:45:07;;;;;;;;;;;;;;;5.07;82.97;102544.09;8300987;28;20038;-52
2023/01/23 14:49:09;;;;;;;14.40;8.82;;;;;;;5.07;83.50;102549.44;8278932;28;19921;-48
2023/01/23 14:53:14;;;;;;;14.27;8.05;;;;;;;5.07;82.58;102557.47;8292180;28;20053;-51
2023/01/23 14:57:14;;;;;;;19.20;10.52;;;;;;;5.09;83.83;102547.59;8295826;28;20120;-49
2023/01/23 15:01:15;;;;;;;19.90;10.27;;;;;;;5.08;84.74;102551.19;8276136;28;20045;-54
2023/01/23 15:05:22;;;;;;;20.90;11.45;;;;;;;5.04;85.39;102549.56;8264351;28;20108;-50
2023/01/23 15:09:30;;;;;;;20.75;11.48;;;;;;;5.01;86.42;102555.03;8286482;28;20470;-56
2023/01/23 15:13:39;;;;;;;22.50;11.85;;;;;;;5.02;86.21;102556.75;8262973;28;20423;-56
2023/01/23 15:17:43;;;;;;;19.20;10.43;;;;;;;5.00;86.69;102555.97;8263031;28;20035;-51
2023/01/23 15:21:43;;;;;;;20.83;11.27;;;;;;;4.97;87.16;102554.25;8279241;28;20125;-53
2023/01/23 15:25:45;;;;;;;22.65;12.15;;;;;;;4.93;87.71;102551.72;8274606;28;20037;-53
2023/01/23 15:29:45;;;;;;;22.20;12.38;;;;;;;4.94;87.75;102567.75;8270391;28;20442;-52
2023/01/23 15:33:46;;;;;;;22.20;11.80;;;;;;;4.91;87.11;102553.63;8290520;28;20042;-51
2023/01/23 15:37:48;;;;;;;20.77;11.68;;;;;;;4.90;87.88;102557.22;8284284;28;20399;-53
2023/01/23 15:41:53;;;;;;;22.27;10.82;;;;;;;4.86;87.64;102555.56;8330772;28;20096;-53
2023/01/23 15:45:54;;;;;;;22.63;12.52;;;;;;;4.87;87.18;102566.25;8336313;28;20234;-53
2023/01/23 15:49:55;;;;;;;22.45;12.18;;;;;;;4.82;87.63;102559.31;8309666;28;20874;-50
2023/01/23 15:53:56;;;;;;;24.55;13.18;;;;;;;4.81;87.83;102554.84;8324588;28;20076;-53
2023/01/23 15:57:56;;;;;;;23.05;12.30;;;;;;;4.78;88.45;102550.47;8356913;28;20030;-51
2023/01/23 16:01:57;;;;;;;20.42;11.20;;;;;;;4.77;88.13;102555.91;8334705;28;20033;-51
2023/01/23 16:05:57;;;;;;;25.42;12.98;;;;;;;4.70;89.13;102559.72;8325795;28;20143;-52
2023/01/23 16:09:58;;;;;;;24.60;12.50;;;;;;;4.70;89.18;102565.09;8325024;28;20049;-52
2023/01/23 16:13:59;;;;;;;23.90;12.80;;;;;;;4.68;89.17;102553.53;8325628;28;20095;-52
2023/01/23 16:18:00;;;;;;;24.63;14.43;;;;;;;4.63;89.75;102553.69;8326809;28;20065;-53
2023/01/23 16:22:01;;;;;;;24.77;13.02;;;;;;;4.58;90.22;102554.78;8333812;28;20056;-52
2023/01/23 16:26:01;;;;;;;29.20;13.75;;;;;;;4.63;89.83;102558.19;8331006;28;20048;-54
2023/01/23 16:30:02;;;;;;;26.67;14.55;;;;;;;4.60;89.87;102547.59;8335254;28;20056;-54
2023/01/23 16:34:02;;;;;;;26.80;14.38;;;;;;;4.58;89.99;102536.03;8333318;28;20245;-55
2023/01/23 16:38:04;;;;;;;30.00;14.50;;;;;;;4.57;89.72;102532.47;8336494;28;20037;-52
2023/01/23 16:42:04;;;;;;;29.25;14.23;;;;;;;4.54;89.91;102537.09;8330776;28;20068;-52
2023/01/23 16:46:05;;;;;;;29.15;15.25;;;;;;;4.52;90.06;102529.13;8334268;28;20041;-54
2023/01/23 16:50:06;;;;;;;31.60;14.95;;;;;;;4.48;90.40;102531.94;8317965;28;20292;-55
2023/01/23 16:54:14;;;;;;;30.40;15.48;;;;;;;4.46;90.60;102539.16;8341925;28;20037;-53
2023/01/23 16:58:27;;;;;;;30.10;14.90;;;;;;;4.41;90.77;102527.69;8352874;28;20119;-55
2023/01/23 17:02:30;;;;;;;29.87;15.33;;;;;;;4.36;91.81;102527.00;8311727;28;20052;-55
2023/01/23 17:06:31;;;;;;;29.63;15.73;;;;;;;4.34;91.47;102528.84;8327535;28;20295;-56
2023/01/23 17:10:32;;;;;;;30.98;15.40;;;;;;;4.37;91.14;102534.09;8333666;28;20191;-56
2023/01/23 17:14:42;;;;;;;30.75;15.50;;;;;;;4.36;91.76;102537.72;8348933;28;20171;-57
2023/01/23 17:18:43;;;;;;;27.98;15.15;;;;;;;4.37;91.48;102551.06;8350938;28;20036;-55
2023/01/23 17:22:44;;;;;;;32.72;16.40;;;;;;;4.39;91.33;102553.69;8349778;28;20033;-55
2023/01/23 17:26:45;;;;;;;31.10;16.23;;;;;;;4.37;91.89;102555.53;8349883;28;20041;-51
2023/01/23 17:30:48;;;;;;;33.78;17.77;;;;;;;4.39;91.83;102569.75;8335909;28;20069;-52
2023/01/23 17:34:49;;;;;;;32.07;16.30;;;;;;;4.33;92.17;102562.78;8341648;28;20414;-48
2023/01/23 17:38:50;;;;;;;33.88;17.08;;;;;;;4.33;92.42;102565.44;8348812;28;20060;-53
2023/01/23 17:42:52;;;;;;;34.63;17.30;;;;;;;4.35;91.45;102570.75;8347460;28;20037;-54
2023/01/23 17:46:53;;;;;;;31.77;17.45;;;;;;;4.35;91.91;102568.06;8305991;28;20038;-54
2023/01/23 17:50:54;;;;;;;31.67;16.25;;;;;;;4.31;92.27;102571.78;8329178;28;20479;-52
2023/01/23 17:54:55;;;;;;;32.42;16.52;;;;;;;4.27;92.23;102564.78;8332574;28;20345;-53
2023/01/23 17:58:55;;;;;;;32.20;16.52;;;;;;;4.29;91.91;102557.56;8341154;28;20052;-52
2023/01/23 18:02:57;;;;;;;33.53;16.42;;;;;;;4.33;91.29;102554.75;8347225;28;20041;-53
2023/01/23 18:06:58;;;;;;;30.27;16.38;;;;;;;4.34;91.07;102550.28;8329165;28;20124;-53
2023/01/23 18:10:59;;;;;;;31.92;17.13;;;;;;;4.30;91.06;102549.50;8340374;28;20051;-53
2023/01/23 18:15:19;;;;;;;31.40;16.95;;;;;;;4.37;90.62;102560.88;8333929;28;20033;-53
2023/01/23 18:19:22;;;;;;;29.17;15.93;;;;;;;4.32;90.48;102558.34;8343531;28;20112;-54
2023/01/23 18:23:24;;;;;;;31.15;16.63;;;;;;;4.32;90.86;102552.09;8328461;28;20037;-54
2023/01/23 18:27:25;;;;;;;28.58;15.02;;;;;;;4.34;90.20;102550.28;8326795;28;20044;-54
2023/01/23 18:31:39;;;;;;;24.17;13.65;;;;;;;4.37;88.81;102551.06;8336388;28;20041;-55
2023/01/23 18:36:11;;;;;;;31.50;15.80;;;;;;;4.37;89.16;102552.84;8328106;28;20410;-54
2023/01/23 18:40:22;;;;;;;30.40;15.57;;;;;;;4.35;89.84;102557.38;8336510;28;20741;-54
2023/01/23 18:44:25;;;;;;;26.92;15.80;;;;;;;4.38;89.09;102546.56;8357504;28;20040;-53
2023/01/23 18:48:26;;;;;;;27.42;14.65;;;;;;;4.36;88.97;102549.28;8339427;28;20103;-52
2023/01/23 18:52:40;;;;;;;27.20;14.93;;;;;;;4.35;89.12;102557.38;8356661;28;20036;-53
2023/01/23 18:57:20;;;;;;;21.42;13.02;;;;;;;4.40;87.37;102555.41;8350096;28;20175;-54
2023/01/23 19:01:33;;;;;;;21.35;11.63;;;;;;;4.42;86.51;102543.72;8358141;28;20043;-53
2023/01/23 19:05:34;;;;;;;19.40;11.80;;;;;;;4.43;86.50;102549.97;8338196;28;20048;-53